Time;durP1;ratioP1;P1;durP2;ratioP2;P2;SDS_P1;SDS_P2;PMS_P1;PMS_P2;Temp;Humidity;BMP_temperature;BMP_pressure;BME280_temperature;BME280_humidity;BME280_pressure;Samples;Min_cycle;Max_cycle;Signal;HPM_P1;HPM_P2
2022/03/04 00:00:56;;;;;;;19.95;9.80;;;;;;;;;;5064195;28;20544;-55
2022/03/04 00:03:22;;;;;;;19.25;10.32;;;;;;;;;;5062282;28;20039;-55
2022/03/04 00:05:47;;;;;;;19.50;9.35;;;;;;;;;;5068954;28;20020;-56
2022/03/04 00:08:13;;;;;;;23.23;10.30;;;;;;;;;;5067129;28;20031;-55
2022/03/04 00:10:39;;;;;;;23.98;11.27;;;;;;;;;;5064761;28;20451;-55
2022/03/04 00:13:05;;;;;;;20.75;10.05;;;;;;;;;;5059881;28;20163;-54
2022/03/04 00:15:31;;;;;;;23.65;9.70;;;;;;;;;;5067674;28;20040;-55
2022/03/04 00:17:56;;;;;;;21.63;9.73;;;;;;;;;;5066276;28;20025;-55
2022/03/04 00:20:22;;;;;;;22.13;11.38;;;;;;;;;;5064334;28;20399;-55
2022/03/04 00:22:48;;;;;;;21.85;10.93;;;;;;;;;;5061325;28;20040;-55
2022/03/04 00:25:13;;;;;;;22.75;9.88;;;;;;;;;;5063648;28;20035;-54
2022/03/04 00:27:39;;;;;;;21.40;9.73;;;;;;;;;;5056292;28;20036;-56
2022/03/04 00:30:06;;;;;;;24.23;10.50;;;;;;;;;;5063014;28;20040;-55
2022/03/04 00:32:31;;;;;;;20.35;10.07;;;;;;;;;;5063722;28;20037;-55
2022/03/04 00:34:57;;;;;;;22.63;10.20;;;;;;;;;;5063138;28;20063;-55
2022/03/04 00:37:22;;;;;;;24.17;10.80;;;;;;;;;;5065693;28;20031;-54
2022/03/04 00:39:48;;;;;;;21.20;10.52;;;;;;;;;;5061277;28;20459;-55
2022/03/04 00:42:13;;;;;;;21.13;10.30;;;;;;;;;;5058196;28;20040;-55
2022/03/04 00:44:38;;;;;;;21.95;10.18;;;;;;;;;;5058008;28;20029;-53
2022/03/04 00:47:05;;;;;;;22.52;11.18;;;;;;;;;;5063632;28;20027;-55
2022/03/04 00:49:30;;;;;;;27.83;11.70;;;;;;;;;;5065521;28;20275;-55
2022/03/04 00:51:55;;;;;;;22.42;10.98;;;;;;;;;;5061645;28;20395;-55
2022/03/04 00:54:21;;;;;;;28.48;10.48;;;;;;;;;;5061683;28;20021;-55
2022/03/04 00:56:46;;;;;;;25.70;11.20;;;;;;;;;;5058779;28;20051;-54
2022/03/04 00:59:12;;;;;;;24.05;11.30;;;;;;;;;;5055401;28;20492;-55
2022/03/04 01:01:37;;;;;;;24.02;10.75;;;;;;;;;;5063176;28;20222;-54
2022/03/04 01:04:03;;;;;;;21.35;10.93;;;;;;;;;;5065762;28;20097;-55
2022/03/04 01:06:28;;;;;;;25.13;11.23;;;;;;;;;;5063529;28;20032;-55
2022/03/04 01:08:54;;;;;;;28.55;11.35;;;;;;;;;;5055299;28;20036;-57
2022/03/04 01:11:19;;;;;;;29.83;12.15;;;;;;;;;;5061925;28;20044;-55
2022/03/04 01:13:45;;;;;;;29.88;12.52;;;;;;;;;;5060771;28;20025;-55
2022/03/04 01:16:10;;;;;;;29.33;12.27;;;;;;;;;;5062869;28;20052;-54
2022/03/04 01:18:36;;;;;;;27.80;11.98;;;;;;;;;;5062337;28;20044;-55
2022/03/04 01:21:01;;;;;;;24.23;11.98;;;;;;;;;;5058442;28;20511;-54
2022/03/04 01:23:27;;;;;;;25.23;11.95;;;;;;;;;;5064885;28;20027;-54
2022/03/04 01:25:52;;;;;;;23.40;10.45;;;;;;;;;;5062640;28;20138;-55
2022/03/04 01:28:20;;;;;;;25.63;11.07;;;;;;;;;;5057150;28;20479;-54
2022/03/04 01:30:46;;;;;;;24.42;10.93;;;;;;;;;;5059673;28;20044;-54
2022/03/04 01:33:11;;;;;;;26.20;11.70;;;;;;;;;;5064736;28;20376;-54
2022/03/04 01:35:37;;;;;;;29.02;12.52;;;;;;;;;;5059734;28;20083;-54
2022/03/04 01:38:02;;;;;;;28.05;11.73;;;;;;;;;;5057884;28;20107;-55
2022/03/04 01:40:28;;;;;;;25.60;11.32;;;;;;;;;;5058267;28;20359;-54
2022/03/04 01:42:53;;;;;;;31.95;11.88;;;;;;;;;;5059444;28;20036;-54
2022/03/04 01:45:20;;;;;;;25.88;11.18;;;;;;;;;;5061175;28;20027;-54
2022/03/04 01:47:46;;;;;;;31.15;12.70;;;;;;;;;;5063494;28;20074;-54
2022/03/04 01:50:12;;;;;;;27.55;12.05;;;;;;;;;;5060395;28;20483;-54
2022/03/04 01:52:37;;;;;;;30.08;12.15;;;;;;;;;;5062976;28;20403;-55
2022/03/04 01:55:04;;;;;;;27.88;12.85;;;;;;;;;;5061995;28;20067;-55
2022/03/04 01:57:29;;;;;;;29.13;12.52;;;;;;;;;;5057541;28;20027;-54
2022/03/04 01:59:55;;;;;;;31.50;14.20;;;;;;;;;;5061714;28;20545;-54
2022/03/04 02:02:20;;;;;;;32.90;13.93;;;;;;;;;;5059452;28;20043;-54
2022/03/04 02:04:49;;;;;;;32.50;14.40;;;;;;;;;;5065412;28;20089;-55
2022/03/04 02:07:15;;;;;;;35.95;14.73;;;;;;;;;;5061224;28;20033;-54
2022/03/04 02:09:40;;;;;;;30.50;14.23;;;;;;;;;;5059478;28;20032;-54
2022/03/04 02:12:06;;;;;;;29.95;13.93;;;;;;;;;;5061542;28;20073;-54
2022/03/04 02:14:31;;;;;;;28.73;13.52;;;;;;;;;;5063880;28;20089;-54
2022/03/04 02:16:57;;;;;;;34.33;14.05;;;;;;;;;;5058909;28;20310;-54
2022/03/04 02:19:23;;;;;;;29.00;14.70;;;;;;;;;;5060402;28;20023;-54
2022/03/04 02:21:57;;;;;;;31.85;13.90;;;;;;;;;;5057536;28;20175;-56
2022/03/04 02:24:25;;;;;;;30.63;12.93;;;;;;;;;;5061204;28;20078;-55
2022/03/04 02:26:52;;;;;;;32.85;13.32;;;;;;;;;;5052286;28;20125;-55
2022/03/04 02:29:18;;;;;;;28.52;13.07;;;;;;;;;;5063262;28;20025;-55
2022/03/04 02:31:44;;;;;;;35.83;13.77;;;;;;;;;;5061438;28;20114;-55
2022/03/04 02:34:09;;;;;;;31.73;13.40;;;;;;;;;;5062128;28;20036;-55
2022/03/04 02:36:37;;;;;;;32.30;13.63;;;;;;;;;;5052267;28;20029;-55
2022/03/04 02:39:04;;;;;;;33.83;13.10;;;;;;;;;;5064364;28;20103;-55
2022/03/04 02:41:30;;;;;;;31.42;14.00;;;;;;;;;;5056738;28;20454;-55
2022/03/04 02:43:55;;;;;;;32.90;13.00;;;;;;;;;;5057500;28;20020;-56
2022/03/04 02:46:21;;;;;;;32.10;12.50;;;;;;;;;;5056131;28;20464;-55
2022/03/04 02:48:46;;;;;;;27.02;12.77;;;;;;;;;;5061606;28;20470;-55
2022/03/04 02:51:12;;;;;;;32.72;14.00;;;;;;;;;;5061160;28;20029;-55
2022/03/04 02:53:37;;;;;;;35.08;13.35;;;;;;;;;;5060957;28;20025;-55
2022/03/04 02:56:03;;;;;;;28.40;11.70;;;;;;;;;;5060553;28;20491;-55
2022/03/04 02:58:28;;;;;;;26.58;12.60;;;;;;;;;;5062698;28;20032;-55
2022/03/04 03:00:54;;;;;;;37.83;15.30;;;;;;;;;;5058712;28;20036;-55
2022/03/04 03:03:19;;;;;;;33.53;13.98;;;;;;;;;;5066557;28;20028;-55
2022/03/04 03:05:45;;;;;;;29.33;13.70;;;;;;;;;;5067111;28;20020;-55
2022/03/04 03:08:11;;;;;;;30.50;13.50;;;;;;;;;;5064571;28;20494;-54
2022/03/04 03:10:36;;;;;;;32.97;13.48;;;;;;;;;;5067952;28;20021;-55
2022/03/04 03:13:03;;;;;;;32.45;13.27;;;;;;;;;;5067781;28;20086;-53
2022/03/04 03:15:28;;;;;;;35.83;14.38;;;;;;;;;;5068708;28;20029;-54
2022/03/04 03:17:54;;;;;;;33.72;13.38;;;;;;;;;;5059281;28;20572;-54
2022/03/04 03:20:20;;;;;;;31.48;13.45;;;;;;;;;;5064062;28;20024;-54
2022/03/04 03:22:46;;;;;;;36.35;14.35;;;;;;;;;;5065477;28;20025;-54
2022/03/04 03:25:12;;;;;;;33.45;14.40;;;;;;;;;;5062861;28;20036;-54
2022/03/04 03:27:38;;;;;;;33.72;14.38;;;;;;;;;;5061295;28;20044;-54
2022/03/04 03:30:05;;;;;;;32.83;13.32;;;;;;;;;;5063032;28;20020;-53
2022/03/04 03:32:31;;;;;;;39.22;13.70;;;;;;;;;;5052772;28;20504;-55
2022/03/04 03:34:56;;;;;;;32.92;14.57;;;;;;;;;;5056702;28;20036;-54
2022/03/04 03:37:22;;;;;;;31.65;14.02;;;;;;;;;;5064034;28;20027;-55
2022/03/04 03:39:47;;;;;;;35.30;15.50;;;;;;;;;;5061356;28;20533;-54
2022/03/04 03:42:12;;;;;;;34.33;14.52;;;;;;;;;;5062478;28;20032;-54
2022/03/04 03:44:38;;;;;;;35.55;15.18;;;;;;;;;;5055102;28;20116;-54
2022/03/04 03:47:03;;;;;;;40.30;15.88;;;;;;;;;;5060169;28;20025;-55
2022/03/04 03:49:29;;;;;;;35.10;16.10;;;;;;;;;;5067390;28;20474;-55
2022/03/04 03:51:54;;;;;;;36.30;15.00;;;;;;;;;;5067421;28;20111;-54
2022/03/04 03:54:20;;;;;;;30.77;13.55;;;;;;;;;;5058284;28;20071;-55
2022/03/04 03:56:45;;;;;;;36.95;15.70;;;;;;;;;;5066932;28;20571;-54
2022/03/04 03:59:11;;;;;;;37.25;14.30;;;;;;;;;;5060057;28;20393;-55
2022/03/04 04:01:38;;;;;;;36.50;15.15;;;;;;;;;;5061576;28;20052;-54
2022/03/04 04:04:03;;;;;;;36.33;15.30;;;;;;;;;;5064553;28;20025;-55
2022/03/04 04:06:29;;;;;;;35.63;14.98;;;;;;;;;;5064217;28;20017;-55
2022/03/04 04:08:54;;;;;;;39.80;14.82;;;;;;;;;;5061854;28;20036;-55
2022/03/04 04:11:20;;;;;;;45.97;16.38;;;;;;;;;;5066206;28;20021;-54
2022/03/04 04:13:45;;;;;;;38.42;14.63;;;;;;;;;;5061515;28;20024;-54
2022/03/04 04:16:10;;;;;;;30.80;13.98;;;;;;;;;;5063864;28;20480;-55
2022/03/04 04:18:36;;;;;;;39.28;15.57;;;;;;;;;;5055913;28;20071;-55
2022/03/04 04:21:04;;;;;;;34.55;13.75;;;;;;;;;;5061609;28;20028;-54
2022/03/04 04:23:29;;;;;;;38.55;15.55;;;;;;;;;;5068240;28;20033;-55
2022/03/04 04:25:55;;;;;;;46.38;17.83;;;;;;;;;;5059751;28;20428;-54
2022/03/04 04:28:22;;;;;;;49.33;17.70;;;;;;;;;;5063454;28;20047;-55
2022/03/04 04:30:47;;;;;;;41.10;16.60;;;;;;;;;;5063480;28;20033;-55
2022/03/04 04:33:13;;;;;;;35.50;14.85;;;;;;;;;;5056889;28;20435;-54
2022/03/04 04:35:38;;;;;;;38.15;14.30;;;;;;;;;;5059189;28;20111;-55
2022/03/04 04:38:04;;;;;;;43.17;16.65;;;;;;;;;;5054902;28;20365;-54
2022/03/04 04:40:30;;;;;;;46.33;16.67;;;;;;;;;;5058938;28;20187;-53
2022/03/04 04:42:55;;;;;;;35.75;13.93;;;;;;;;;;5067398;28;20418;-54
2022/03/04 04:45:21;;;;;;;34.38;14.65;;;;;;;;;;5063571;28;20549;-55
2022/03/04 04:47:46;;;;;;;40.13;15.50;;;;;;;;;;5051258;28;20037;-54
2022/03/04 04:50:12;;;;;;;37.65;15.57;;;;;;;;;;5058959;28;20020;-54
2022/03/04 04:52:37;;;;;;;41.72;15.73;;;;;;;;;;5066492;28;20506;-54
2022/03/04 04:55:03;;;;;;;35.78;14.60;;;;;;;;;;5062863;28;20032;-54
2022/03/04 04:57:29;;;;;;;35.55;14.82;;;;;;;;;;5063449;28;20032;-55
2022/03/04 04:59:54;;;;;;;39.97;15.70;;;;;;;;;;5062812;28;20032;-54
2022/03/04 05:02:20;;;;;;;40.08;15.98;;;;;;;;;;5066593;28;20419;-55
2022/03/04 05:04:45;;;;;;;39.53;14.63;;;;;;;;;;5066106;28;20089;-54
2022/03/04 05:07:11;;;;;;;38.83;15.15;;;;;;;;;;5063446;28;20031;-54
2022/03/04 05:09:36;;;;;;;38.95;15.40;;;;;;;;;;5059093;28;20446;-55
2022/03/04 05:12:02;;;;;;;36.58;14.85;;;;;;;;;;5056017;28;20119;-55
2022/03/04 05:14:27;;;;;;;36.85;15.23;;;;;;;;;;5065006;28;20051;-55
2022/03/04 05:16:52;;;;;;;35.97;14.18;;;;;;;;;;5056089;28;20035;-55
2022/03/04 05:19:18;;;;;;;39.83;16.38;;;;;;;;;;5063100;28;20111;-54
2022/03/04 05:21:43;;;;;;;41.38;14.88;;;;;;;;;;5062438;28;20020;-54
2022/03/04 05:24:09;;;;;;;41.65;16.40;;;;;;;;;;5056687;28;20027;-53
2022/03/04 05:26:37;;;;;;;40.72;16.02;;;;;;;;;;5059621;28;20146;-54
2022/03/04 05:29:05;;;;;;;41.50;16.33;;;;;;;;;;5063386;28;20024;-54
2022/03/04 05:31:31;;;;;;;38.03;15.48;;;;;;;;;;5061428;28;20456;-54
2022/03/04 05:33:57;;;;;;;42.63;15.18;;;;;;;;;;5057947;28;20162;-55
2022/03/04 05:36:23;;;;;;;44.45;14.82;;;;;;;;;;5054921;28;20413;-55
2022/03/04 05:38:49;;;;;;;41.00;15.02;;;;;;;;;;5056088;28;20496;-54
2022/03/04 05:41:16;;;;;;;42.85;15.93;;;;;;;;;;5061599;28;20487;-55
2022/03/04 05:43:43;;;;;;;42.42;15.25;;;;;;;;;;5060699;28;20028;-55
2022/03/04 05:46:08;;;;;;;39.70;15.80;;;;;;;;;;5058470;28;20078;-53
2022/03/04 05:48:33;;;;;;;42.13;15.50;;;;;;;;;;5062360;28;20521;-53
2022/03/04 05:50:59;;;;;;;45.47;15.80;;;;;;;;;;5060269;28;20020;-54
2022/03/04 05:53:25;;;;;;;41.70;15.10;;;;;;;;;;5060050;28;20336;-53
2022/03/04 05:55:51;;;;;;;43.67;15.48;;;;;;;;;;5062596;28;20044;-55
2022/03/04 05:58:16;;;;;;;45.72;15.93;;;;;;;;;;5060145;28;20383;-54
2022/03/04 06:00:42;;;;;;;43.10;15.73;;;;;;;;;;5065480;28;20390;-55
2022/03/04 06:03:07;;;;;;;44.53;16.10;;;;;;;;;;5065568;28;20083;-54
2022/03/04 06:05:33;;;;;;;43.38;15.57;;;;;;;;;;5065007;28;20548;-54
2022/03/04 06:07:59;;;;;;;43.92;14.77;;;;;;;;;;5057727;28;20036;-55
2022/03/04 06:10:24;;;;;;;40.28;15.20;;;;;;;;;;5061999;28;20380;-56
2022/03/04 06:12:50;;;;;;;39.03;15.55;;;;;;;;;;5056446;28;20563;-55
2022/03/04 06:15:15;;;;;;;45.40;15.32;;;;;;;;;;5063764;28;20033;-56
2022/03/04 06:17:48;;;;;;;43.80;15.70;;;;;;;;;;5062653;28;20448;-55
2022/03/04 06:20:14;;;;;;;46.33;17.00;;;;;;;;;;5059597;28;20036;-56
2022/03/04 06:22:40;;;;;;;43.80;17.00;;;;;;;;;;5062514;28;20025;-54
2022/03/04 06:25:06;;;;;;;48.28;17.17;;;;;;;;;;5066500;28;20078;-55
2022/03/04 06:27:31;;;;;;;50.78;17.45;;;;;;;;;;5063016;28;20032;-55
2022/03/04 06:29:57;;;;;;;48.65;16.30;;;;;;;;;;5058313;28;20033;-54
2022/03/04 06:32:22;;;;;;;46.75;16.00;;;;;;;;;;5060678;28;20166;-55
2022/03/04 06:34:48;;;;;;;46.00;16.48;;;;;;;;;;5055726;28;20025;-56
2022/03/04 06:37:13;;;;;;;45.55;16.98;;;;;;;;;;5063831;28;20040;-56
2022/03/04 06:39:39;;;;;;;45.63;16.90;;;;;;;;;;5056992;28;20029;-55
2022/03/04 06:42:05;;;;;;;47.95;17.38;;;;;;;;;;5048281;28;20025;-56
2022/03/04 06:44:30;;;;;;;49.35;18.45;;;;;;;;;;5061749;28;20508;-49
2022/03/04 06:46:56;;;;;;;44.80;16.80;;;;;;;;;;5057057;28;20506;-52
2022/03/04 06:49:21;;;;;;;49.53;17.75;;;;;;;;;;5058094;28;20060;-54
2022/03/04 06:51:47;;;;;;;53.03;16.02;;;;;;;;;;5064200;28;20067;-54
2022/03/04 06:54:12;;;;;;;45.78;17.25;;;;;;;;;;5058114;28;20128;-54
2022/03/04 06:56:38;;;;;;;49.28;17.88;;;;;;;;;;5053657;28;20179;-52
2022/03/04 06:59:03;;;;;;;46.28;16.85;;;;;;;;;;5056272;28;20568;-53
2022/03/04 07:01:29;;;;;;;45.95;15.63;;;;;;;;;;5057396;28;20503;-54
2022/03/04 07:03:54;;;;;;;43.55;16.17;;;;;;;;;;5052722;28;20029;-53
2022/03/04 07:06:20;;;;;;;47.50;17.23;;;;;;;;;;5060348;28;20060;-54
2022/03/04 07:08:45;;;;;;;51.45;17.40;;;;;;;;;;5055777;28;20098;-51
2022/03/04 07:11:11;;;;;;;56.00;20.13;;;;;;;;;;5051870;28;20040;-54
2022/03/04 07:13:36;;;;;;;47.72;19.20;;;;;;;;;;5055052;28;20025;-54
2022/03/04 07:16:02;;;;;;;54.95;19.35;;;;;;;;;;5059349;28;20032;-53
2022/03/04 07:18:31;;;;;;;59.67;19.58;;;;;;;;;;5048823;28;20024;-54
2022/03/04 07:20:57;;;;;;;65.25;21.63;;;;;;;;;;5056549;28;20091;-51
2022/03/04 07:23:23;;;;;;;54.90;18.35;;;;;;;;;;5053004;28;20032;-52
2022/03/04 07:25:49;;;;;;;56.88;18.42;;;;;;;;;;5053607;28;20215;-53
2022/03/04 07:28:15;;;;;;;50.22;18.38;;;;;;;;;;5057244;28;20415;-53
2022/03/04 07:30:41;;;;;;;50.67;17.88;;;;;;;;;;5051759;28;20098;-55
2022/03/04 07:33:06;;;;;;;59.80;19.00;;;;;;;;;;5051962;28;20043;-51
2022/03/04 07:35:32;;;;;;;51.75;18.63;;;;;;;;;;5059582;28;20036;-52
2022/03/04 07:37:58;;;;;;;51.10;18.67;;;;;;;;;;5051250;28;20032;-52
2022/03/04 07:40:23;;;;;;;57.63;19.45;;;;;;;;;;5052430;28;20024;-53
2022/03/04 07:42:49;;;;;;;56.85;19.17;;;;;;;;;;5055769;28;20076;-54
2022/03/04 07:45:15;;;;;;;58.50;20.02;;;;;;;;;;5058889;28;20686;-54
2022/03/04 07:47:42;;;;;;;52.00;19.35;;;;;;;;;;5054362;28;20043;-53
2022/03/04 07:50:13;;;;;;;55.00;19.77;;;;;;;;;;5055691;28;20056;-52
2022/03/04 07:52:40;;;;;;;51.72;19.40;;;;;;;;;;5051622;28;20032;-53
2022/03/04 07:55:08;;;;;;;64.57;21.95;;;;;;;;;;5056580;28;20033;-53
2022/03/04 07:57:34;;;;;;;66.72;25.13;;;;;;;;;;5052306;28;20028;-54
2022/03/04 07:59:59;;;;;;;74.72;25.35;;;;;;;;;;5060499;28;20048;-54
2022/03/04 08:02:25;;;;;;;88.03;28.83;;;;;;;;;;5055232;28;20214;-54
2022/03/04 08:04:50;;;;;;;74.88;24.70;;;;;;;;;;5053395;28;20025;-55
2022/03/04 08:07:17;;;;;;;67.38;24.30;;;;;;;;;;5062419;28;20024;-54
2022/03/04 08:09:43;;;;;;;71.25;25.20;;;;;;;;;;5053366;28;20575;-54
2022/03/04 08:12:09;;;;;;;66.95;22.92;;;;;;;;;;5058196;28;20434;-53
2022/03/04 08:14:35;;;;;;;61.00;22.20;;;;;;;;;;5062608;28;20036;-54
2022/03/04 08:17:00;;;;;;;52.65;21.45;;;;;;;;;;5054028;28;20247;-55
2022/03/04 08:19:26;;;;;;;67.10;21.92;;;;;;;;;;5055280;28;20035;-55
2022/03/04 08:21:51;;;;;;;63.13;22.05;;;;;;;;;;5053442;28;20024;-54
2022/03/04 08:24:17;;;;;;;63.08;22.60;;;;;;;;;;5061355;28;20109;-54
2022/03/04 08:26:43;;;;;;;58.45;21.80;;;;;;;;;;5053207;28;20021;-54
2022/03/04 08:29:10;;;;;;;76.28;24.48;;;;;;;;;;5055150;28;20028;-54
2022/03/04 08:31:36;;;;;;;70.68;23.80;;;;;;;;;;5053040;28;20044;-54
2022/03/04 08:34:02;;;;;;;67.68;25.10;;;;;;;;;;5062803;28;20032;-54
2022/03/04 08:36:27;;;;;;;63.50;23.92;;;;;;;;;;5058446;28;20027;-54
2022/03/04 08:38:52;;;;;;;73.10;24.25;;;;;;;;;;5060539;28;20388;-54
2022/03/04 08:41:18;;;;;;;70.38;25.40;;;;;;;;;;5056558;28;20045;-54
2022/03/04 08:43:46;;;;;;;61.70;23.67;;;;;;;;;;5061276;28;20021;-53
2022/03/04 08:46:13;;;;;;;64.68;24.67;;;;;;;;;;5051912;28;20080;-54
2022/03/04 08:48:39;;;;;;;59.30;23.20;;;;;;;;;;5054567;28;20044;-54
2022/03/04 08:51:05;;;;;;;63.45;24.73;;;;;;;;;;5054534;28;20119;-55
2022/03/04 08:53:30;;;;;;;66.47;25.52;;;;;;;;;;5062581;28;20159;-54
2022/03/04 08:55:56;;;;;;;83.18;29.63;;;;;;;;;;5056056;28;20037;-54
2022/03/04 08:58:21;;;;;;;76.72;29.40;;;;;;;;;;5055449;28;20025;-55
2022/03/04 09:00:47;;;;;;;67.43;25.40;;;;;;;;;;5053022;28;20029;-54
2022/03/04 09:03:12;;;;;;;70.18;25.42;;;;;;;;;;5056333;28;20028;-53
2022/03/04 09:05:38;;;;;;;67.65;25.52;;;;;;;;;;5054964;28;20029;-55
2022/03/04 09:08:04;;;;;;;65.80;25.00;;;;;;;;;;5054575;28;20395;-55
2022/03/04 09:10:29;;;;;;;64.43;24.33;;;;;;;;;;5055920;28;20487;-55
2022/03/04 09:12:55;;;;;;;68.80;25.60;;;;;;;;;;5056595;28;20035;-55
2022/03/04 09:15:20;;;;;;;60.22;23.40;;;;;;;;;;5052552;28;20035;-54
2022/03/04 09:17:46;;;;;;;55.25;21.77;;;;;;;;;;5054907;28;20032;-55
2022/03/04 09:20:13;;;;;;;54.42;22.42;;;;;;;;;;5055567;28;20466;-55
2022/03/04 09:22:39;;;;;;;55.00;23.55;;;;;;;;;;5051924;28;20268;-54
2022/03/04 09:25:05;;;;;;;56.88;22.70;;;;;;;;;;5056630;28;20036;-55
2022/03/04 09:27:30;;;;;;;59.45;23.50;;;;;;;;;;5059439;28;20036;-55
2022/03/04 09:29:56;;;;;;;52.85;23.60;;;;;;;;;;5054235;28;20033;-55
2022/03/04 09:32:21;;;;;;;58.30;23.05;;;;;;;;;;5055465;28;20170;-55
2022/03/04 09:34:47;;;;;;;51.35;22.27;;;;;;;;;;5056405;28;20039;-56
2022/03/04 09:37:12;;;;;;;52.85;22.13;;;;;;;;;;5055125;28;20020;-55
2022/03/04 09:39:38;;;;;;;50.03;22.50;;;;;;;;;;5054161;28;20024;-55
2022/03/04 09:42:04;;;;;;;51.15;21.75;;;;;;;;;;5053033;28;20048;-56
2022/03/04 09:44:29;;;;;;;48.85;21.80;;;;;;;;;;5058647;28;20454;-56
2022/03/04 09:46:58;;;;;;;53.58;23.40;;;;;;;;;;5055628;28;20435;-55
2022/03/04 09:49:27;;;;;;;47.47;21.60;;;;;;;;;;5059694;28;20025;-56
2022/03/04 09:51:52;;;;;;;53.28;23.10;;;;;;;;;;5058573;28;20396;-55
2022/03/04 09:54:18;;;;;;;50.25;22.60;;;;;;;;;;5060911;28;20115;-55
2022/03/04 09:56:43;;;;;;;52.17;21.63;;;;;;;;;;5054692;28;20357;-55
2022/03/04 09:59:09;;;;;;;46.75;21.40;;;;;;;;;;5063805;28;20033;-55
2022/03/04 10:01:34;;;;;;;50.58;22.63;;;;;;;;;;5059852;28;20032;-55
2022/03/04 10:04:00;;;;;;;51.67;21.33;;;;;;;;;;5059572;28;20033;-55
2022/03/04 10:06:26;;;;;;;46.42;21.60;;;;;;;;;;5059816;28;20078;-57
2022/03/04 10:08:53;;;;;;;47.47;21.40;;;;;;;;;;5063756;28;20464;-56
2022/03/04 10:11:33;;;;;;;45.60;21.73;;;;;;;;;;5059791;28;20026;-56
2022/03/04 10:14:06;;;;;;;44.53;20.98;;;;;;;;;;5064106;28;20028;-56
2022/03/04 10:16:35;;;;;;;46.58;20.75;;;;;;;;;;5059007;28;20054;-56
2022/03/04 10:19:07;;;;;;;44.40;21.65;;;;;;;;;;5064454;28;20033;-56
2022/03/04 10:21:51;;;;;;;46.97;21.58;;;;;;;;;;5054670;28;20151;-55
2022/03/04 10:24:27;;;;;;;47.65;22.20;;;;;;;;;;5064643;28;20127;-56
2022/03/04 10:27:02;;;;;;;40.65;20.55;;;;;;;;;;5058387;28;20033;-56
2022/03/04 10:29:29;;;;;;;42.72;20.25;;;;;;;;;;5056363;28;20035;-56
2022/03/04 10:32:20;;;;;;;42.00;20.77;;;;;;;;;;5062566;28;20027;-58
2022/03/04 10:34:55;;;;;;;41.05;21.00;;;;;;;;;;5061637;28;20029;-56
2022/03/04 10:37:41;;;;;;;50.17;21.13;;;;;;;;;;5062313;28;20024;-57
2022/03/04 10:40:09;;;;;;;37.50;19.85;;;;;;;;;;5059201;28;20040;-57
2022/03/04 10:42:47;;;;;;;39.97;19.23;;;;;;;;;;5062240;28;20032;-56
2022/03/04 10:45:27;;;;;;;42.85;19.70;;;;;;;;;;5057795;28;20071;-56
2022/03/04 10:47:56;;;;;;;38.95;18.85;;;;;;;;;;5052714;28;20120;-56
2022/03/04 10:50:29;;;;;;;41.58;20.25;;;;;;;;;;5057444;28;20111;-57
2022/03/04 10:53:12;;;;;;;45.58;21.73;;;;;;;;;;5061380;28;20036;-57
2022/03/04 10:55:41;;;;;;;38.00;19.70;;;;;;;;;;5059708;28;20381;-57
2022/03/04 10:58:28;;;;;;;36.97;19.25;;;;;;;;;;5060002;28;20032;-57
2022/03/04 11:01:05;;;;;;;42.80;21.08;;;;;;;;;;5048753;28;20534;-56
2022/03/04 11:03:32;;;;;;;38.38;19.17;;;;;;;;;;5058729;28;20131;-56
2022/03/04 11:06:00;;;;;;;38.58;20.35;;;;;;;;;;5055540;28;20029;-56
2022/03/04 11:08:26;;;;;;;47.95;22.45;;;;;;;;;;5057478;28;20094;-56
2022/03/04 11:10:53;;;;;;;41.47;20.40;;;;;;;;;;5061059;28;20028;-56
2022/03/04 11:13:19;;;;;;;35.63;18.55;;;;;;;;;;5061202;28;20023;-56
2022/03/04 11:15:47;;;;;;;37.90;18.95;;;;;;;;;;5061058;28;20108;-56
2022/03/04 11:18:15;;;;;;;36.70;19.27;;;;;;;;;;5055028;28;20039;-56
2022/03/04 11:20:43;;;;;;;34.80;18.85;;;;;;;;;;5056380;28;20318;-56
2022/03/04 11:23:10;;;;;;;37.60;18.40;;;;;;;;;;5052466;28;20064;-56
2022/03/04 11:25:42;;;;;;;35.78;19.00;;;;;;;;;;5057362;28;20070;-56
2022/03/04 11:28:10;;;;;;;35.50;18.63;;;;;;;;;;5050727;28;20055;-57
2022/03/04 11:30:46;;;;;;;38.05;18.30;;;;;;;;;;5064829;28;20432;-57
2022/03/04 11:33:13;;;;;;;35.47;18.17;;;;;;;;;;5052569;28;20040;-57
2022/03/04 11:35:41;;;;;;;36.10;20.13;;;;;;;;;;5059442;28;20029;-57
2022/03/04 11:38:11;;;;;;;35.63;19.00;;;;;;;;;;5054856;28;20104;-56
2022/03/04 11:40:38;;;;;;;35.05;18.10;;;;;;;;;;5056694;28;20040;-56
2022/03/04 11:43:09;;;;;;;36.08;19.00;;;;;;;;;;5057092;28;20036;-58
2022/03/04 11:45:37;;;;;;;37.97;19.45;;;;;;;;;;5057666;28;20024;-57
2022/03/04 11:48:08;;;;;;;33.60;18.53;;;;;;;;;;5050666;28;20087;-56
2022/03/04 11:50:45;;;;;;;32.05;16.63;;;;;;;;;;5056005;28;20032;-57
2022/03/04 11:53:17;;;;;;;31.63;18.10;;;;;;;;;;5059197;28;20025;-56
2022/03/04 11:56:07;;;;;;;32.08;18.42;;;;;;;;;;5055536;28;20044;-56
2022/03/04 11:58:54;;;;;;;31.15;16.02;;;;;;;;;;5053512;28;20030;-56
2022/03/04 12:01:31;;;;;;;36.83;16.67;;;;;;;;;;5056387;28;20017;-57
2022/03/04 12:04:12;;;;;;;28.25;14.63;;;;;;;;;;5058012;28;20025;-56
2022/03/04 12:06:38;;;;;;;33.75;16.10;;;;;;;;;;5051330;28;20052;-56
2022/03/04 12:09:33;;;;;;;32.95;17.15;;;;;;;;;;5063967;28;20051;-57
2022/03/04 12:12:20;;;;;;;28.75;15.38;;;;;;;;;;5049797;28;20051;-57
2022/03/04 12:14:53;;;;;;;25.85;13.85;;;;;;;;;;5055333;28;20038;-57
2022/03/04 12:17:19;;;;;;;29.25;15.18;;;;;;;;;;5055768;28;20020;-57
2022/03/04 12:19:45;;;;;;;26.58;14.52;;;;;;;;;;5049105;28;20555;-57
2022/03/04 12:22:13;;;;;;;32.10;16.77;;;;;;;;;;5053296;28;20054;-57
2022/03/04 12:24:38;;;;;;;26.85;15.43;;;;;;;;;;5065297;28;20507;-57
2022/03/04 12:27:04;;;;;;;25.85;15.27;;;;;;;;;;5060290;28;20025;-57
2022/03/04 12:29:43;;;;;;;28.65;15.95;;;;;;;;;;5055748;28;20016;-57
2022/03/04 12:32:10;;;;;;;31.17;16.33;;;;;;;;;;5055999;28;20477;-57
2022/03/04 12:34:38;;;;;;;31.65;16.48;;;;;;;;;;5053032;28;20091;-57
2022/03/04 12:37:08;;;;;;;28.50;15.35;;;;;;;;;;5058970;28;20083;-57
2022/03/04 12:39:37;;;;;;;27.45;14.88;;;;;;;;;;5055877;28;20025;-57
2022/03/04 12:42:03;;;;;;;26.60;14.77;;;;;;;;;;5053467;28;20075;-57
2022/03/04 12:44:28;;;;;;;30.25;15.55;;;;;;;;;;5059508;28;20508;-57
2022/03/04 12:46:54;;;;;;;29.33;14.68;;;;;;;;;;5054691;28;20029;-58
2022/03/04 12:49:29;;;;;;;29.48;15.80;;;;;;;;;;5052163;28;20104;-57
2022/03/04 12:51:55;;;;;;;27.55;14.90;;;;;;;;;;5055923;28;20067;-57
2022/03/04 12:54:25;;;;;;;27.08;14.63;;;;;;;;;;5062443;28;20052;-57
2022/03/04 12:56:50;;;;;;;;;;;;;;;;;;5059709;28;20021;-57
2022/03/04 12:59:16;;;;;;;24.50;13.85;;;;;;;;;;5059695;28;19919;-57
2022/03/04 13:01:43;;;;;;;25.45;12.85;;;;;;;;;;5057381;28;20266;-58
2022/03/04 13:04:09;;;;;;;25.63;14.07;;;;;;;;;;5058314;28;20036;-57
2022/03/04 13:06:37;;;;;;;24.80;13.52;;;;;;;;;;5051857;28;20025;-58
2022/03/04 13:09:07;;;;;;;24.60;14.20;;;;;;;;;;5058679;28;20024;-57
2022/03/04 13:11:36;;;;;;;24.80;14.35;;;;;;;;;;5051479;28;20102;-57
2022/03/04 13:14:11;;;;;;;23.88;13.30;;;;;;;;;;5058081;28;20036;-58
2022/03/04 13:16:39;;;;;;;24.48;13.88;;;;;;;;;;5049466;28;20036;-58
2022/03/04 13:19:06;;;;;;;24.83;14.25;;;;;;;;;;5050824;28;20491;-58
2022/03/04 13:21:38;;;;;;;26.05;14.40;;;;;;;;;;5048261;28;20462;-58
2022/03/04 13:24:09;;;;;;;29.95;15.73;;;;;;;;;;5055607;28;20082;-58
2022/03/04 13:26:36;;;;;;;29.52;15.75;;;;;;;;;;5057066;28;20507;-58
2022/03/04 13:29:03;;;;;;;29.27;16.65;;;;;;;;;;5053515;28;20376;-58
2022/03/04 13:31:38;;;;;;;25.95;15.35;;;;;;;;;;5050522;28;20095;-58
2022/03/04 13:34:08;;;;;;;28.63;15.98;;;;;;;;;;5051717;28;20557;-58
2022/03/04 13:36:40;;;;;;;27.52;15.15;;;;;;;;;;5053663;28;20124;-58
2022/03/04 13:39:09;;;;;;;31.00;16.63;;;;;;;;;;5054282;28;20823;-58
2022/03/04 13:41:36;;;;;;;29.40;16.23;;;;;;;;;;5055728;28;20527;-58
2022/03/04 13:44:09;;;;;;;28.70;15.80;;;;;;;;;;5057741;28;20048;-59
2022/03/04 13:46:34;;;;;;;30.95;16.02;;;;;;;;;;5052900;28;20043;-59
2022/03/04 13:49:02;;;;;;;29.95;16.30;;;;;;;;;;5052876;28;20017;-58
2022/03/04 13:51:28;;;;;;;27.88;15.63;;;;;;;;;;5055704;28;20107;-58
2022/03/04 13:54:00;;;;;;;28.88;16.75;;;;;;;;;;5056613;28;20555;-58
2022/03/04 13:56:38;;;;;;;27.45;16.33;;;;;;;;;;5049647;28;20029;-58
2022/03/04 13:59:03;;;;;;;29.73;16.73;;;;;;;;;;5055128;28;20643;-58
2022/03/04 14:01:30;;;;;;;26.40;15.57;;;;;;;;;;5053230;28;20025;-57
2022/03/04 14:03:57;;;;;;;29.60;15.02;;;;;;;;;;5048411;28;20112;-57
2022/03/04 14:06:25;;;;;;;30.83;16.58;;;;;;;;;;5044534;28;20060;-57
2022/03/04 14:08:56;;;;;;;29.42;17.10;;;;;;;;;;5053462;28;20370;-58
2022/03/04 14:11:22;;;;;;;30.48;17.40;;;;;;;;;;5053115;28;20154;-58
2022/03/04 14:13:47;;;;;;;30.80;17.13;;;;;;;;;;5052628;28;20112;-58
2022/03/04 14:16:14;;;;;;;31.52;17.70;;;;;;;;;;5051401;28;20036;-58
2022/03/04 14:18:40;;;;;;;28.02;16.92;;;;;;;;;;5052509;28;20025;-58